sensor_id;sensor_type;location;lat;lon;timestamp;pressure;altitude;pressure_sealevel;temperature;humidity
55466;BME280;41329;41.594;23.810;2022-09-06T00:00:39;95907.03;;;17.76;59.84
55466;BME280;41329;41.594;23.810;2022-09-06T00:03:05;95885.88;;;17.61;59.99
55466;BME280;41329;41.594;23.810;2022-09-06T00:05:33;95905.06;;;17.66;60.03
55466;BME280;41329;41.594;23.810;2022-09-06T00:08:00;95899.09;;;17.57;60.29
55466;BME280;41329;41.594;23.810;2022-09-06T00:10:27;95893.50;;;17.54;60.81
55466;BME280;41329;41.594;23.810;2022-09-06T00:12:53;95901.09;;;17.57;60.82
55466;BME280;41329;41.594;23.810;2022-09-06T00:15:19;95877.53;;;17.37;61.05
55466;BME280;41329;41.594;23.810;2022-09-06T00:17:45;95896.31;;;17.33;61.27
55466;BME280;41329;41.594;23.810;2022-09-06T00:20:10;95897.91;;;17.09;62.37
55466;BME280;41329;41.594;23.810;2022-09-06T00:22:37;95889.53;;;17.06;62.25
55466;BME280;41329;41.594;23.810;2022-09-06T00:25:04;95906.31;;;17.13;62.73
55466;BME280;41329;41.594;23.810;2022-09-06T00:27:30;95892.72;;;17.04;63.03
55466;BME280;41329;41.594;23.810;2022-09-06T00:29:56;95898.72;;;17.06;63.28
55466;BME280;41329;41.594;23.810;2022-09-06T00:32:22;95898.72;;;17.10;63.47
55466;BME280;41329;41.594;23.810;2022-09-06T00:34:47;95905.91;;;17.07;63.08
55466;BME280;41329;41.594;23.810;2022-09-06T00:37:13;95901.09;;;17.11;62.49
55466;BME280;41329;41.594;23.810;2022-09-06T00:39:38;95902.69;;;17.12;62.23
55466;BME280;41329;41.594;23.810;2022-09-06T00:42:11;95894.72;;;17.07;62.49
55466;BME280;41329;41.594;23.810;2022-09-06T00:44:37;95893.13;;;17.10;62.24
55466;BME280;41329;41.594;23.810;2022-09-06T00:47:04;95893.53;;;17.12;62.23
55466;BME280;41329;41.594;23.810;2022-09-06T00:49:35;95879.53;;;17.08;62.13
55466;BME280;41329;41.594;23.810;2022-09-06T00:52:05;95883.53;;;17.11;62.22
55466;BME280;41329;41.594;23.810;2022-09-06T00:54:32;95882.34;;;17.12;62.37
55466;BME280;41329;41.594;23.810;2022-09-06T00:56:58;95885.13;;;17.12;62.61
55466;BME280;41329;41.594;23.810;2022-09-06T00:59:25;95891.94;;;17.14;62.39
55466;BME280;41329;41.594;23.810;2022-09-06T01:01:51;95875.16;;;17.07;62.41
55466;BME280;41329;41.594;23.810;2022-09-06T01:04:17;95881.13;;;17.09;61.83
55466;BME280;41329;41.594;23.810;2022-09-06T01:07:04;95885.53;;;17.10;61.94
55466;BME280;41329;41.594;23.810;2022-09-06T01:12:30;95881.13;;;16.88;62.48
55466;BME280;41329;41.594;23.810;2022-09-06T01:18:02;95886.34;;;16.83;62.80
55466;BME280;41329;41.594;23.810;2022-09-06T01:28:52;95899.06;;;16.66;63.73
55466;BME280;41329;41.594;23.810;2022-09-06T01:31:51;95900.69;;;16.71;63.94
55466;BME280;41329;41.594;23.810;2022-09-06T01:34:27;95901.47;;;16.64;63.64
55466;BME280;41329;41.594;23.810;2022-09-06T01:37:01;95874.72;;;16.53;63.50
55466;BME280;41329;41.594;23.810;2022-09-06T01:39:30;95891.88;;;16.69;63.25
55466;BME280;41329;41.594;23.810;2022-09-06T01:41:57;95872.72;;;16.57;63.41
55466;BME280;41329;41.594;23.810;2022-09-06T01:44:25;95889.50;;;16.64;62.81
55466;BME280;41329;41.594;23.810;2022-09-06T01:50:45;95880.28;;;16.46;62.91
55466;BME280;41329;41.594;23.810;2022-09-06T01:58:31;95877.44;;;16.32;62.99
55466;BME280;41329;41.594;23.810;2022-09-06T02:01:16;95880.63;;;16.30;63.42
55466;BME280;41329;41.594;23.810;2022-09-06T02:03:58;95876.22;;;16.29;63.85
55466;BME280;41329;41.594;23.810;2022-09-06T02:06:30;95873.84;;;16.28;63.71
55466;BME280;41329;41.594;23.810;2022-09-06T02:09:04;95876.22;;;16.22;63.61
55466;BME280;41329;41.594;23.810;2022-09-06T02:11:37;95849.06;;;16.05;63.96
55466;BME280;41329;41.594;23.810;2022-09-06T02:14:09;95873.44;;;16.22;63.68
55466;BME280;41329;41.594;23.810;2022-09-06T02:16:38;95865.03;;;16.15;63.50
55466;BME280;41329;41.594;23.810;2022-09-06T02:19:11;95874.22;;;16.19;63.36
55466;BME280;41329;41.594;23.810;2022-09-06T02:21:41;95878.16;;;16.15;63.39
55466;BME280;41329;41.594;23.810;2022-09-06T02:24:14;95885.34;;;16.12;63.76
55466;BME280;41329;41.594;23.810;2022-09-06T02:26:43;95839.78;;;15.80;63.76
55466;BME280;41329;41.594;23.810;2022-09-06T02:29:10;95885.34;;;16.09;63.85
55466;BME280;41329;41.594;23.810;2022-09-06T02:31:44;95865.38;;;15.96;63.90
55466;BME280;41329;41.594;23.810;2022-09-06T02:34:14;95864.13;;;15.94;64.38
55466;BME280;41329;41.594;23.810;2022-09-06T02:36:41;95888.50;;;16.00;64.66
55466;BME280;41329;41.594;23.810;2022-09-06T02:39:06;95882.09;;;15.93;64.88
55466;BME280;41329;41.594;23.810;2022-09-06T02:41:32;95872.47;;;15.83;64.75
55466;BME280;41329;41.594;23.810;2022-09-06T02:43:58;95896.44;;;15.91;64.91
55466;BME280;41329;41.594;23.810;2022-09-06T02:46:24;95894.00;;;15.86;64.61
55466;BME280;41329;41.594;23.810;2022-09-06T02:48:50;95877.66;;;15.78;65.15
55466;BME280;41329;41.594;23.810;2022-09-06T02:51:15;95896.41;;;15.88;65.30
55466;BME280;41329;41.594;23.810;2022-09-06T02:53:41;95901.59;;;15.86;65.54
55466;BME280;41329;41.594;23.810;2022-09-06T02:56:07;95906.78;;;15.87;65.68
55466;BME280;41329;41.594;23.810;2022-09-06T02:58:32;95913.16;;;15.88;65.79
55466;BME280;41329;41.594;23.810;2022-09-06T03:00:58;95888.81;;;15.78;65.83
55466;BME280;41329;41.594;23.810;2022-09-06T03:03:24;95902.78;;;15.85;65.90
55466;BME280;41329;41.594;23.810;2022-09-06T03:05:51;95904.34;;;15.82;65.97
55466;BME280;41329;41.594;23.810;2022-09-06T03:08:18;95909.16;;;15.82;66.19
55466;BME280;41329;41.594;23.810;2022-09-06T03:10:50;95908.75;;;15.83;66.25
55466;BME280;41329;41.594;23.810;2022-09-06T03:13:16;95908.34;;;15.81;65.93
55466;BME280;41329;41.594;23.810;2022-09-06T03:15:41;95905.94;;;15.76;65.57
55466;BME280;41329;41.594;23.810;2022-09-06T03:18:07;95890.34;;;15.65;65.51
55466;BME280;41329;41.594;23.810;2022-09-06T03:20:32;95886.31;;;15.62;65.15
55466;BME280;41329;41.594;23.810;2022-09-06T03:22:58;95907.47;;;15.70;65.65
55466;BME280;41329;41.594;23.810;2022-09-06T03:25:24;95906.31;;;15.71;65.28
55466;BME280;41329;41.594;23.810;2022-09-06T03:27:50;95885.91;;;15.57;65.07
55466;BME280;41329;41.594;23.810;2022-09-06T03:30:15;95909.06;;;15.64;64.99
55466;BME280;41329;41.594;23.810;2022-09-06T03:32:41;95908.63;;;15.62;65.25
55466;BME280;41329;41.594;23.810;2022-09-06T03:35:07;95901.81;;;15.53;65.15
55466;BME280;41329;41.594;23.810;2022-09-06T03:37:33;95913.75;;;15.50;65.30
55466;BME280;41329;41.594;23.810;2022-09-06T03:39:59;95906.53;;;15.45;65.75
55466;BME280;41329;41.594;23.810;2022-09-06T03:42:24;95904.94;;;15.41;65.97
55466;BME280;41329;41.594;23.810;2022-09-06T03:44:51;95914.88;;;15.38;65.87
55466;BME280;41329;41.594;23.810;2022-09-06T03:47:17;95910.88;;;15.36;65.74
55466;BME280;41329;41.594;23.810;2022-09-06T03:49:43;95879.63;;;15.16;66.16
55466;BME280;41329;41.594;23.810;2022-09-06T03:52:09;95910.06;;;15.35;66.33
55466;BME280;41329;41.594;23.810;2022-09-06T03:54:35;95897.63;;;15.26;66.25
55466;BME280;41329;41.594;23.810;2022-09-06T03:57:00;95914.06;;;15.34;66.16
55466;BME280;41329;41.594;23.810;2022-09-06T03:59:25;95900.75;;;15.17;66.14
55466;BME280;41329;41.594;23.810;2022-09-06T04:01:51;95897.94;;;15.14;66.03
55466;BME280;41329;41.594;23.810;2022-09-06T04:04:16;95903.13;;;15.15;66.40
55466;BME280;41329;41.594;23.810;2022-09-06T04:06:42;95919.44;;;15.13;66.54
55466;BME280;41329;41.594;23.810;2022-09-06T04:09:07;95926.25;;;15.19;66.47
55466;BME280;41329;41.594;23.810;2022-09-06T04:11:33;95924.28;;;15.20;66.96
55466;BME280;41329;41.594;23.810;2022-09-06T04:13:58;95914.63;;;15.10;67.03
55466;BME280;41329;41.594;23.810;2022-09-06T04:16:24;95895.03;;;14.96;66.90
55466;BME280;41329;41.594;23.810;2022-09-06T04:18:49;95933.84;;;15.19;66.95
55466;BME280;41329;41.594;23.810;2022-09-06T04:21:15;95939.03;;;15.24;67.20
55466;BME280;41329;41.594;23.810;2022-09-06T04:23:40;95921.47;;;15.20;67.60
55466;BME280;41329;41.594;23.810;2022-09-06T04:26:06;95934.66;;;15.26;67.52
55466;BME280;41329;41.594;23.810;2022-09-06T04:28:31;95944.66;;;15.31;67.63
55466;BME280;41329;41.594;23.810;2022-09-06T04:31:01;95936.25;;;15.27;67.75
55466;BME280;41329;41.594;23.810;2022-09-06T04:33:27;95931.06;;;15.26;67.42
55466;BME280;41329;41.594;23.810;2022-09-06T04:35:55;95942.66;;;15.28;66.95
55466;BME280;41329;41.594;23.810;2022-09-06T04:38:25;95941.03;;;15.27;66.28
55466;BME280;41329;41.594;23.810;2022-09-06T04:40:51;95949.81;;;15.25;66.68
55466;BME280;41329;41.594;23.810;2022-09-06T04:43:20;95898.97;;;14.95;67.08
55466;BME280;41329;41.594;23.810;2022-09-06T04:45:46;95953.81;;;15.31;67.17
55466;BME280;41329;41.594;23.810;2022-09-06T04:48:11;95939.06;;;15.27;67.28
55466;BME280;41329;41.594;23.810;2022-09-06T04:50:37;95945.13;;;15.36;67.75
55466;BME280;41329;41.594;23.810;2022-09-06T04:53:03;95948.28;;;15.35;68.05
55466;BME280;41329;41.594;23.810;2022-09-06T04:55:28;95945.19;;;15.43;68.07
55466;BME280;41329;41.594;23.810;2022-09-06T04:57:56;95945.94;;;15.37;67.88
55466;BME280;41329;41.594;23.810;2022-09-06T05:00:24;95925.53;;;15.29;68.11
55466;BME280;41329;41.594;23.810;2022-09-06T05:02:50;95942.78;;;15.45;68.19
55466;BME280;41329;41.594;23.810;2022-09-06T05:05:15;95948.03;;;15.50;68.12
55466;BME280;41329;41.594;23.810;2022-09-06T05:07:41;95928.50;;;15.50;68.33
55466;BME280;41329;41.594;23.810;2022-09-06T05:10:06;95920.03;;;15.36;68.64
55466;BME280;41329;41.594;23.810;2022-09-06T05:12:32;95939.19;;;15.41;68.73
55466;BME280;41329;41.594;23.810;2022-09-06T05:14:57;95938.03;;;15.49;69.06
55466;BME280;41329;41.594;23.810;2022-09-06T05:17:23;95936.50;;;15.55;69.20
55466;BME280;41329;41.594;23.810;2022-09-06T05:19:48;95944.91;;;15.62;69.10
55466;BME280;41329;41.594;23.810;2022-09-06T05:22:14;95933.34;;;15.60;68.94
55466;BME280;41329;41.594;23.810;2022-09-06T05:24:39;95933.72;;;15.59;69.12
55466;BME280;41329;41.594;23.810;2022-09-06T05:27:05;95920.97;;;15.58;69.40
55466;BME280;41329;41.594;23.810;2022-09-06T05:29:31;95932.25;;;15.75;69.58
55466;BME280;41329;41.594;23.810;2022-09-06T05:31:57;95919.44;;;15.71;69.53
55466;BME280;41329;41.594;23.810;2022-09-06T05:34:22;95919.06;;;15.69;69.33
55466;BME280;41329;41.594;23.810;2022-09-06T05:36:48;95926.25;;;15.77;69.72
55466;BME280;41329;41.594;23.810;2022-09-06T05:39:13;95918.69;;;15.74;69.77
55466;BME280;41329;41.594;23.810;2022-09-06T05:41:39;95922.31;;;15.81;69.70
55466;BME280;41329;41.594;23.810;2022-09-06T05:44:04;95929.09;;;15.87;69.37
55466;BME280;41329;41.594;23.810;2022-09-06T05:46:30;95928.69;;;15.85;69.37
55466;BME280;41329;41.594;23.810;2022-09-06T05:48:58;95917.94;;;15.84;69.29
55466;BME280;41329;41.594;23.810;2022-09-06T05:51:28;95925.09;;;15.81;69.85
55466;BME280;41329;41.594;23.810;2022-09-06T05:53:55;95929.84;;;15.74;70.51
55466;BME280;41329;41.594;23.810;2022-09-06T05:56:20;95915.84;;;15.67;71.18
55466;BME280;41329;41.594;23.810;2022-09-06T05:58:46;95920.25;;;15.71;71.25
55466;BME280;41329;41.594;23.810;2022-09-06T06:01:20;95915.38;;;15.54;71.25
55466;BME280;41329;41.594;23.810;2022-09-06T06:03:54;95916.63;;;15.64;72.10
55466;BME280;41329;41.594;23.810;2022-09-06T06:06:22;95919.47;;;15.74;71.54
55466;BME280;41329;41.594;23.810;2022-09-06T06:08:48;95912.34;;;15.87;71.73
55466;BME280;41329;41.594;23.810;2022-09-06T06:11:14;95897.94;;;15.75;71.63
55466;BME280;41329;41.594;23.810;2022-09-06T06:13:40;95886.78;;;15.71;70.81
55466;BME280;41329;41.594;23.810;2022-09-06T06:16:06;95895.59;;;15.80;70.64
55466;BME280;41329;41.594;23.810;2022-09-06T06:18:33;95910.03;;;16.00;71.19
55466;BME280;41329;41.594;23.810;2022-09-06T06:23:35;95886.97;;;16.13;71.04
55466;BME280;41329;41.594;23.810;2022-09-06T06:26:00;95906.97;;;16.33;70.55
55466;BME280;41329;41.594;23.810;2022-09-06T06:28:25;95897.00;;;16.35;70.90
55466;BME280;41329;41.594;23.810;2022-09-06T06:30:51;95899.78;;;16.35;70.48
55466;BME280;41329;41.594;23.810;2022-09-06T06:33:18;95892.63;;;16.41;70.35
55466;BME280;41329;41.594;23.810;2022-09-06T06:36:05;95899.44;;;16.51;70.26
55466;BME280;41329;41.594;23.810;2022-09-06T06:38:37;95889.09;;;16.58;70.43
55466;BME280;41329;41.594;23.810;2022-09-06T06:41:05;95890.31;;;16.64;69.68
55466;BME280;41329;41.594;23.810;2022-09-06T06:43:31;95891.94;;;16.83;70.32
55466;BME280;41329;41.594;23.810;2022-09-06T06:46:04;95881.94;;;16.89;69.27
55466;BME280;41329;41.594;23.810;2022-09-06T06:48:29;95892.31;;;17.16;68.35
55466;BME280;41329;41.594;23.810;2022-09-06T06:50:55;95887.50;;;17.13;67.17
55466;BME280;41329;41.594;23.810;2022-09-06T06:53:21;95890.69;;;17.29;66.95
55466;BME280;41329;41.594;23.810;2022-09-06T06:55:46;95891.13;;;17.31;65.55
55466;BME280;41329;41.594;23.810;2022-09-06T06:58:14;95887.91;;;17.47;65.56
55466;BME280;41329;41.594;23.810;2022-09-06T07:00:40;95890.28;;;17.34;65.36
55466;BME280;41329;41.594;23.810;2022-09-06T07:03:06;95886.31;;;17.56;65.21
55466;BME280;41329;41.594;23.810;2022-09-06T07:05:32;95885.47;;;17.73;65.18
55466;BME280;41329;41.594;23.810;2022-09-06T07:07:58;95879.84;;;17.84;63.89
55466;BME280;41329;41.594;23.810;2022-09-06T07:10:24;95888.22;;;17.84;64.50
55466;BME280;41329;41.594;23.810;2022-09-06T07:12:49;95892.16;;;18.01;63.99
55466;BME280;41329;41.594;23.810;2022-09-06T07:15:16;95900.91;;;18.17;62.28
55466;BME280;41329;41.594;23.810;2022-09-06T07:17:41;95880.91;;;18.18;62.85
55466;BME280;41329;41.594;23.810;2022-09-06T07:20:08;95886.88;;;18.24;61.50
55466;BME280;41329;41.594;23.810;2022-09-06T07:22:35;95888.03;;;18.30;61.44
55466;BME280;41329;41.594;23.810;2022-09-06T07:25:01;95875.59;;;18.45;61.91
55466;BME280;41329;41.594;23.810;2022-09-06T07:27:26;95883.47;;;18.64;60.29
55466;BME280;41329;41.594;23.810;2022-09-06T07:29:52;95871.09;;;18.58;59.20
55466;BME280;41329;41.594;23.810;2022-09-06T07:32:18;95878.59;;;18.75;59.57
55466;BME280;41329;41.594;23.810;2022-09-06T07:34:43;95885.97;;;19.06;60.63
55466;BME280;41329;41.594;23.810;2022-09-06T07:37:09;95891.34;;;19.37;61.36
55466;BME280;41329;41.594;23.810;2022-09-06T07:39:34;95892.81;;;19.49;57.98
55466;BME280;41329;41.594;23.810;2022-09-06T07:42:01;95874.28;;;19.62;58.45
55466;BME280;41329;41.594;23.810;2022-09-06T07:44:27;95872.41;;;19.85;57.70
55466;BME280;41329;41.594;23.810;2022-09-06T07:46:53;95863.00;;;19.99;57.06
55466;BME280;41329;41.594;23.810;2022-09-06T07:49:19;95867.69;;;20.12;56.37
55466;BME280;41329;41.594;23.810;2022-09-06T07:51:44;95861.88;;;20.26;56.81
55466;BME280;41329;41.594;23.810;2022-09-06T07:54:11;95854.63;;;20.29;56.01
55466;BME280;41329;41.594;23.810;2022-09-06T07:56:36;95841.44;;;20.26;56.07
55466;BME280;41329;41.594;23.810;2022-09-06T07:59:02;95845.53;;;20.48;54.39
55466;BME280;41329;41.594;23.810;2022-09-06T08:01:33;95863.91;;;20.56;55.41
55466;BME280;41329;41.594;23.810;2022-09-06T08:04:04;95866.16;;;20.64;55.25
55466;BME280;41329;41.594;23.810;2022-09-06T08:06:32;95857.63;;;20.71;54.40
55466;BME280;41329;41.594;23.810;2022-09-06T08:08:58;95851.13;;;20.78;53.38
55466;BME280;41329;41.594;23.810;2022-09-06T08:11:26;95847.56;;;21.00;52.92
55466;BME280;41329;41.594;23.810;2022-09-06T08:13:53;95853.41;;;21.13;53.44
55466;BME280;41329;41.594;23.810;2022-09-06T08:16:20;95826.06;;;21.13;53.51
55466;BME280;41329;41.594;23.810;2022-09-06T08:18:52;95826.25;;;21.26;54.16
55466;BME280;41329;41.594;23.810;2022-09-06T08:21:19;95835.03;;;21.28;52.84
55466;BME280;41329;41.594;23.810;2022-09-06T08:23:47;95839.16;;;21.23;51.95
55466;BME280;41329;41.594;23.810;2022-09-06T08:26:17;95836.28;;;21.27;52.90
55466;BME280;41329;41.594;23.810;2022-09-06T08:28:43;95811.91;;;21.40;52.71
55466;BME280;41329;41.594;23.810;2022-09-06T08:31:11;95777.72;;;21.41;53.08
55466;BME280;41329;41.594;23.810;2022-09-06T08:33:38;95820.66;;;21.88;52.05
55466;BME280;41329;41.594;23.810;2022-09-06T08:36:06;95822.28;;;21.89;50.47
55466;BME280;41329;41.594;23.810;2022-09-06T08:38:32;95818.22;;;21.67;50.67
55466;BME280;41329;41.594;23.810;2022-09-06T08:41:09;95811.88;;;21.63;50.83
55466;BME280;41329;41.594;23.810;2022-09-06T08:43:36;95806.00;;;21.54;50.34
55466;BME280;41329;41.594;23.810;2022-09-06T08:46:02;95799.88;;;21.82;50.96
55466;BME280;41329;41.594;23.810;2022-09-06T08:48:31;95805.16;;;21.99;51.94
55466;BME280;41329;41.594;23.810;2022-09-06T08:54:07;95803.44;;;22.41;48.72
55466;BME280;41329;41.594;23.810;2022-09-06T08:57:08;95787.66;;;22.43;49.06
55466;BME280;41329;41.594;23.810;2022-09-06T08:59:36;95785.00;;;22.56;49.83
55466;BME280;41329;41.594;23.810;2022-09-06T09:02:11;95795.78;;;22.77;49.33
55466;BME280;41329;41.594;23.810;2022-09-06T09:04:45;95780.09;;;22.92;49.48
55466;BME280;41329;41.594;23.810;2022-09-06T09:10:02;95747.28;;;22.98;49.28
55466;BME280;41329;41.594;23.810;2022-09-06T09:12:30;95774.25;;;23.47;51.58
55466;BME280;41329;41.594;23.810;2022-09-06T09:15:02;95753.91;;;23.52;45.74
55466;BME280;41329;41.594;23.810;2022-09-06T09:17:30;95768.63;;;23.31;46.14
55466;BME280;41329;41.594;23.810;2022-09-06T09:19:56;95761.13;;;23.25;46.44
55466;BME280;41329;41.594;23.810;2022-09-06T09:22:23;95746.09;;;23.44;47.12
55466;BME280;41329;41.594;23.810;2022-09-06T09:24:49;95752.88;;;23.75;45.22
55466;BME280;41329;41.594;23.810;2022-09-06T09:27:20;95739.81;;;23.81;44.21
55466;BME280;41329;41.594;23.810;2022-09-06T09:32:39;95736.31;;;23.89;42.29
55466;BME280;41329;41.594;23.810;2022-09-06T09:38:08;95732.25;;;24.31;47.13
55466;BME280;41329;41.594;23.810;2022-09-06T09:40:51;95722.09;;;24.46;44.47
55466;BME280;41329;41.594;23.810;2022-09-06T09:43:23;95720.28;;;24.77;45.95
55466;BME280;41329;41.594;23.810;2022-09-06T09:49:12;95716.47;;;25.18;45.68
55466;BME280;41329;41.594;23.810;2022-09-06T09:51:42;95707.78;;;25.00;41.54
55466;BME280;41329;41.594;23.810;2022-09-06T09:54:10;95678.81;;;24.96;43.58
55466;BME280;41329;41.594;23.810;2022-09-06T10:01:52;95680.13;;;25.16;41.02
55466;BME280;41329;41.594;23.810;2022-09-06T10:04:28;95678.84;;;25.30;41.71
55466;BME280;41329;41.594;23.810;2022-09-06T10:07:15;95683.16;;;25.56;41.92
55466;BME280;41329;41.594;23.810;2022-09-06T10:09:45;95677.44;;;25.47;41.84
55466;BME280;41329;41.594;23.810;2022-09-06T10:12:31;95678.88;;;25.51;39.59
55466;BME280;41329;41.594;23.810;2022-09-06T10:14:57;95680.44;;;25.65;39.86
55466;BME280;41329;41.594;23.810;2022-09-06T10:17:47;95659.19;;;25.69;38.57
55466;BME280;41329;41.594;23.810;2022-09-06T10:20:14;95661.09;;;25.72;38.54
55466;BME280;41329;41.594;23.810;2022-09-06T10:23:22;95668.44;;;25.91;38.54
55466;BME280;41329;41.594;23.810;2022-09-06T10:28:38;95660.56;;;26.08;37.37
55466;BME280;41329;41.594;23.810;2022-09-06T10:36:13;95649.69;;;26.06;37.98
55466;BME280;41329;41.594;23.810;2022-09-06T10:46:58;95640.03;;;26.65;39.47
55466;BME280;41329;41.594;23.810;2022-09-06T10:49:28;95634.97;;;26.60;37.39
55466;BME280;41329;41.594;23.810;2022-09-06T10:51:59;95633.00;;;26.48;36.47
55466;BME280;41329;41.594;23.810;2022-09-06T10:54:29;95629.16;;;26.63;36.58
55466;BME280;41329;41.594;23.810;2022-09-06T10:57:04;95604.72;;;26.66;36.17
55466;BME280;41329;41.594;23.810;2022-09-06T10:59:37;95635.53;;;27.03;33.37
55466;BME280;41329;41.594;23.810;2022-09-06T11:02:35;95612.63;;;26.80;33.16
55466;BME280;41329;41.594;23.810;2022-09-06T11:05:09;95616.09;;;26.84;32.41
55466;BME280;41329;41.594;23.810;2022-09-06T11:07:43;95627.66;;;26.98;34.10
55466;BME280;41329;41.594;23.810;2022-09-06T11:10:21;95619.75;;;26.93;32.00
55466;BME280;41329;41.594;23.810;2022-09-06T11:12:57;95618.16;;;26.92;34.63
55466;BME280;41329;41.594;23.810;2022-09-06T11:15:25;95604.72;;;26.66;34.25
55466;BME280;41329;41.594;23.810;2022-09-06T11:20:38;95624.25;;;26.64;34.03
55466;BME280;41329;41.594;23.810;2022-09-06T11:28:51;95610.72;;;26.86;35.32
55466;BME280;41329;41.594;23.810;2022-09-06T11:31:48;95614.38;;;26.86;35.06
55466;BME280;41329;41.594;23.810;2022-09-06T11:34:21;95615.66;;;26.94;34.31
55466;BME280;41329;41.594;23.810;2022-09-06T11:36:57;95597.16;;;26.72;31.92
55466;BME280;41329;41.594;23.810;2022-09-06T11:41:54;95600.34;;;27.01;35.54
55466;BME280;41329;41.594;23.810;2022-09-06T11:47:36;95607.31;;;27.18;34.66
55466;BME280;41329;41.594;23.810;2022-09-06T11:53:18;95576.06;;;27.36;34.13
55466;BME280;41329;41.594;23.810;2022-09-06T11:55:51;95590.13;;;27.39;33.70
55466;BME280;41329;41.594;23.810;2022-09-06T11:58:49;95551.75;;;27.35;35.11
55466;BME280;41329;41.594;23.810;2022-09-06T12:06:21;95588.16;;;28.41;34.10
55466;BME280;41329;41.594;23.810;2022-09-06T12:08:50;95572.63;;;28.51;31.39
55466;BME280;41329;41.594;23.810;2022-09-06T12:11:32;95578.75;;;28.59;32.97
55466;BME280;41329;41.594;23.810;2022-09-06T12:14:41;95565.72;;;28.43;32.08
55466;BME280;41329;41.594;23.810;2022-09-06T12:17:17;95540.38;;;28.45;31.90
55466;BME280;41329;41.594;23.810;2022-09-06T12:28:07;95536.38;;;27.77;31.17
55466;BME280;41329;41.594;23.810;2022-09-06T12:30:40;95547.91;;;27.83;32.70
55466;BME280;41329;41.594;23.810;2022-09-06T12:33:12;95539.38;;;27.83;33.66
55466;BME280;41329;41.594;23.810;2022-09-06T12:35:39;95550.84;;;28.07;33.92
55466;BME280;41329;41.594;23.810;2022-09-06T12:38:06;95538.94;;;28.08;32.59
55466;BME280;41329;41.594;23.810;2022-09-06T12:40:44;95542.59;;;28.09;31.34
55466;BME280;41329;41.594;23.810;2022-09-06T12:43:14;95548.97;;;27.95;32.65
55466;BME280;41329;41.594;23.810;2022-09-06T12:45:45;95543.63;;;27.78;32.67
55466;BME280;41329;41.594;23.810;2022-09-06T12:48:27;95529.81;;;27.44;32.05
55466;BME280;41329;41.594;23.810;2022-09-06T12:51:19;95539.25;;;27.50;32.20
55466;BME280;41329;41.594;23.810;2022-09-06T12:53:53;95531.56;;;27.42;32.11
55466;BME280;41329;41.594;23.810;2022-09-06T12:56:21;95533.28;;;27.39;32.35
55466;BME280;41329;41.594;23.810;2022-09-06T12:58:48;95523.16;;;27.38;32.05
55466;BME280;41329;41.594;23.810;2022-09-06T13:01:29;95532.03;;;27.40;32.00
55466;BME280;41329;41.594;23.810;2022-09-06T13:03:59;95528.88;;;27.29;31.40
55466;BME280;41329;41.594;23.810;2022-09-06T13:06:29;95523.34;;;27.17;32.19
55466;BME280;41329;41.594;23.810;2022-09-06T13:08:57;95532.66;;;26.99;32.11
55466;BME280;41329;41.594;23.810;2022-09-06T13:11:29;95523.50;;;26.95;32.38
55466;BME280;41329;41.594;23.810;2022-09-06T13:13:56;95526.19;;;26.81;32.12
55466;BME280;41329;41.594;23.810;2022-09-06T13:16:24;95519.91;;;26.95;32.17
55466;BME280;41329;41.594;23.810;2022-09-06T13:18:51;95520.97;;;26.61;31.99
55466;BME280;41329;41.594;23.810;2022-09-06T13:21:30;95523.19;;;26.75;32.42
55466;BME280;41329;41.594;23.810;2022-09-06T13:23:56;95526.00;;;26.66;32.81
55466;BME280;41329;41.594;23.810;2022-09-06T13:26:39;95534.69;;;26.72;33.72
55466;BME280;41329;41.594;23.810;2022-09-06T13:31:46;95532.81;;;26.87;34.67
55466;BME280;41329;41.594;23.810;2022-09-06T13:34:27;95533.75;;;26.75;34.77
55466;BME280;41329;41.594;23.810;2022-09-06T13:37:02;95532.09;;;26.47;35.27
55466;BME280;41329;41.594;23.810;2022-09-06T13:42:03;95525.28;;;26.26;35.07
55466;BME280;41329;41.594;23.810;2022-09-06T13:44:31;95539.75;;;26.19;35.82
55466;BME280;41329;41.594;23.810;2022-09-06T13:46:58;95529.34;;;26.16;36.25
55466;BME280;41329;41.594;23.810;2022-09-06T13:49:24;95531.84;;;26.05;37.44
55466;BME280;41329;41.594;23.810;2022-09-06T13:51:56;95532.72;;;25.93;38.77
55466;BME280;41329;41.594;23.810;2022-09-06T13:54:23;95524.94;;;25.85;39.40
55466;BME280;41329;41.594;23.810;2022-09-06T13:56:49;95529.03;;;25.84;39.95
55466;BME280;41329;41.594;23.810;2022-09-06T13:59:14;95541.63;;;25.83;40.94
55466;BME280;41329;41.594;23.810;2022-09-06T14:01:42;95540.03;;;25.73;42.45
55466;BME280;41329;41.594;23.810;2022-09-06T14:04:10;95536.28;;;25.54;42.95
55466;BME280;41329;41.594;23.810;2022-09-06T14:06:36;95523.28;;;25.66;42.83
55466;BME280;41329;41.594;23.810;2022-09-06T14:09:02;95533.94;;;25.83;43.03
55466;BME280;41329;41.594;23.810;2022-09-06T14:11:28;95520.59;;;25.62;43.28
55466;BME280;41329;41.594;23.810;2022-09-06T14:13:53;95531.72;;;25.87;43.44
55466;BME280;41329;41.594;23.810;2022-09-06T14:16:19;95533.38;;;25.97;42.68
55466;BME280;41329;41.594;23.810;2022-09-06T14:18:45;95517.22;;;25.85;42.90
55466;BME280;41329;41.594;23.810;2022-09-06T14:21:10;95532.47;;;26.09;43.35
55466;BME280;41329;41.594;23.810;2022-09-06T14:23:36;95533.88;;;26.05;42.52
55466;BME280;41329;41.594;23.810;2022-09-06T14:26:03;95537.34;;;26.09;43.12
55466;BME280;41329;41.594;23.810;2022-09-06T14:28:32;95536.38;;;25.94;42.39
55466;BME280;41329;41.594;23.810;2022-09-06T14:31:08;95523.22;;;25.87;42.81
55466;BME280;41329;41.594;23.810;2022-09-06T14:33:34;95538.34;;;25.84;42.19
55466;BME280;41329;41.594;23.810;2022-09-06T14:36:04;95538.16;;;25.79;42.36
55466;BME280;41329;41.594;23.810;2022-09-06T14:38:30;95529.84;;;25.84;43.16